Time;durP1;ratioP1;P1;durP2;ratioP2;P2;SDS_P1;SDS_P2;PMS_P1;PMS_P2;Temp;Humidity;BMP_temperature;BMP_pressure;BME280_temperature;BME280_humidity;BME280_pressure;Samples;Min_cycle;Max_cycle;Signal;HPM_P1;HPM_P2
2022/06/24 00:00:15;;;;;;;7.00;6.50;;;;;;;20.65;99.00;95869.81;5042078;28;20817;-72
2022/06/24 00:02:47;;;;;;;7.93;7.30;;;;;;;20.42;98.90;95855.53;5019096;28;20438;-75
2022/06/24 00:05:14;;;;;;;8.10;7.37;;;;;;;20.37;100.00;95873.56;5031571;28;20431;-73
2022/06/24 00:07:48;;;;;;;8.17;7.40;;;;;;;20.32;100.00;95887.47;5015157;28;20430;-75
2022/06/24 00:10:21;;;;;;;10.80;7.40;;;;;;;20.33;100.00;95872.09;5031612;28;20466;-72
2022/06/24 00:12:49;;;;;;;8.10;7.30;;;;;;;20.37;100.00;95900.44;5032572;28;20446;-73
2022/06/24 00:15:27;;;;;;;8.80;6.80;;;;;;;20.31;100.00;95877.13;5021445;28;20433;-73
2022/06/24 00:17:54;;;;;;;9.20;8.40;;;;;;;20.60;100.00;95902.50;5015217;28;20517;-73
2022/06/24 00:20:22;;;;;;;9.70;8.80;;;;;;;20.35;100.00;95865.16;5031070;28;20826;-73
2022/06/24 00:22:50;;;;;;;9.73;7.60;;;;;;;20.51;100.00;95910.28;5015173;28;20825;-73
2022/06/24 00:25:24;;;;;;;9.30;8.27;;;;;;;20.19;100.00;95888.38;5031333;28;20438;-76
2022/06/24 00:28:05;;;;;;;8.50;7.80;;;;;;;19.80;100.00;95902.91;5031052;28;20433;-75
2022/06/24 00:30:36;;;;;;;15.40;7.97;;;;;;;;;;5014679;28;20978;-75
2022/06/24 00:33:14;;;;;;;8.33;7.70;;;;;;;20.21;100.00;95908.28;5030979;28;20462;-74
2022/06/24 00:35:45;;;;;;;9.30;8.47;;;;;;;20.24;100.00;95910.16;5019205;28;20465;-73
2022/06/24 00:38:30;;;;;;;10.00;9.10;;;;;;;19.83;100.00;95887.94;5030969;28;20454;-73
2022/06/24 00:41:00;;;;;;;8.90;8.30;;;;;;;20.04;100.00;95919.94;5030965;28;20449;-73
2022/06/24 00:43:31;;;;;;;8.33;7.73;;;;;;;20.01;100.00;95924.16;5035691;28;20942;-73
2022/06/24 00:46:05;;;;;;;10.30;9.40;;;;;;;19.62;100.00;95888.84;5038397;28;20492;-73
2022/06/24 00:48:34;;;;;;;8.03;7.53;;;;;;;19.24;100.00;95896.78;5011214;28;20435;-73
2022/06/24 00:51:01;;;;;;;10.60;9.50;;;;;;;19.24;100.00;95904.06;5039917;28;20449;-73
2022/06/24 00:53:28;;;;;;;10.13;9.23;;;;;;;19.41;100.00;95906.63;5031833;28;20469;-73
2022/06/24 00:55:55;;;;;;;9.53;8.83;;;;;;;19.49;100.00;95901.94;5032943;28;20439;-73
2022/06/24 00:58:23;;;;;;;10.50;9.57;;;;;;;19.34;100.00;95913.94;5019885;28;20461;-73
2022/06/24 01:00:49;;;;;;;10.93;9.87;;;;;;;18.89;100.00;95874.38;5009862;28;20506;-73
2022/06/24 01:03:16;;;;;;;12.47;9.93;;;;;;;19.12;100.00;95905.28;5018817;28;20942;-73
2022/06/24 01:05:43;;;;;;;9.83;9.03;;;;;;;19.03;100.00;95886.94;5043727;28;20464;-73
2022/06/24 01:08:14;;;;;;;9.60;8.90;;;;;;;18.86;100.00;95888.56;5030279;28;20477;-73
2022/06/24 01:10:41;;;;;;;10.57;8.80;;;;;;;18.65;100.00;95877.16;5031548;28;20482;-74
2022/06/24 01:13:09;;;;;;;14.10;9.73;;;;;;;18.52;100.00;95888.28;5030082;28;20655;-74
2022/06/24 01:15:37;;;;;;;10.40;9.50;;;;;;;18.35;100.00;95824.09;5030115;28;20480;-73
2022/06/24 01:18:04;;;;;;;9.43;8.67;;;;;;;18.41;100.00;95868.81;5030169;28;20965;-72
2022/06/24 01:20:32;;;;;;;10.63;9.63;;;;;;;18.49;100.00;95881.03;5029979;28;20462;-72
2022/06/24 01:22:58;;;;;;;10.00;9.17;;;;;;;18.30;100.00;95865.44;5031327;28;20440;-73
2022/06/24 01:25:25;;;;;;;9.37;8.67;;;;;;;18.30;100.00;95865.44;5033337;28;20434;-72
2022/06/24 01:27:52;;;;;;;9.67;8.97;;;;;;;18.35;100.00;95865.03;5039833;28;20465;-73
2022/06/24 01:30:19;;;;;;;11.17;10.23;;;;;;;18.29;100.00;95864.63;5029994;28;20458;-72
2022/06/24 01:32:45;;;;;;;11.13;9.57;;;;;;;18.41;100.00;95855.44;5013514;28;20439;-72
2022/06/24 01:35:13;;;;;;;9.13;8.43;;;;;;;18.08;100.00;95803.16;5029693;28;20549;-72
2022/06/24 01:37:41;;;;;;;10.10;9.23;;;;;;;18.47;100.00;95866.50;5030044;28;20438;-72
2022/06/24 01:40:08;;;;;;;9.70;8.97;;;;;;;18.42;100.00;95840.13;5026802;28;20462;-73
2022/06/24 01:42:35;;;;;;;8.80;8.20;;;;;;;18.57;100.00;95842.38;5030910;28;20766;-73
2022/06/24 01:45:02;;;;;;;9.40;8.70;;;;;;;18.52;100.00;95825.94;5043057;28;20954;-74
2022/06/24 01:47:29;;;;;;;10.67;9.83;;;;;;;18.52;100.00;95850.78;5029597;28;20922;-73
2022/06/24 01:49:55;;;;;;;9.40;8.60;;;;;;;18.48;100.00;95842.03;5029755;28;20554;-73
2022/06/24 01:52:22;;;;;;;9.67;8.87;;;;;;;18.41;100.00;95830.56;5009902;28;20467;-73
2022/06/24 01:54:49;;;;;;;9.00;8.40;;;;;;;18.35;100.00;95824.09;5039496;28;21110;-73
2022/06/24 01:57:16;;;;;;;10.20;9.23;;;;;;;18.13;100.00;95821.50;5022486;28;20430;-73
2022/06/24 01:59:42;;;;;;;9.57;8.87;;;;;;;18.12;100.00;95830.66;5029361;28;20477;-74
2022/06/24 02:02:09;;;;;;;10.23;9.33;;;;;;;18.35;100.00;95827.53;5030893;28;20476;-73
2022/06/24 02:04:36;;;;;;;9.77;8.50;;;;;;;18.04;100.00;95826.50;5029284;28;20529;-73
2022/06/24 02:07:03;;;;;;;9.50;8.57;;;;;;;17.81;100.00;95772.69;5013060;28;20852;-73
2022/06/24 02:09:29;;;;;;;10.47;9.67;;;;;;;18.13;100.00;95839.47;5029227;28;20873;-73
2022/06/24 02:14:41;;;;;;;8.97;8.17;;;;;;;17.94;100.00;95822.69;5016097;28;20497;-76
2022/06/24 02:17:11;;;;;;;10.77;9.87;;;;;;;18.01;100.00;95803.94;5031180;28;20426;-75
2022/06/24 02:19:38;;;;;;;9.80;8.80;;;;;;;18.25;100.00;95820.31;5040437;28;20581;-74
2022/06/24 02:22:05;;;;;;;10.87;9.87;;;;;;;18.25;100.00;95839.81;5028969;28;20553;-75
2022/06/24 02:24:32;;;;;;;15.17;10.10;;;;;;;18.16;100.00;95836.78;5045718;28;20505;-74
2022/06/24 02:26:58;;;;;;;13.50;9.43;;;;;;;17.81;100.00;95810.88;5030426;28;20953;-73
2022/06/24 02:29:25;;;;;;;14.87;11.37;;;;;;;17.84;100.00;95831.50;5012647;28;20540;-73
2022/06/24 02:31:52;;;;;;;13.50;11.20;;;;;;;17.36;100.00;95791.81;5030306;28;20500;-73
2022/06/24 02:34:18;;;;;;;12.93;10.50;;;;;;;17.64;100.00;95815.09;5029033;28;20462;-73
2022/06/24 02:36:46;;;;;;;15.20;12.07;;;;;;;17.58;100.00;95779.19;5018201;28;20439;-73
2022/06/24 02:39:13;;;;;;;11.77;10.57;;;;;;;17.91;100.00;95828.06;5039438;28;20839;-74
2022/06/24 02:41:40;;;;;;;12.43;11.43;;;;;;;17.40;100.00;95781.88;5035356;28;20429;-73
2022/06/24 02:44:07;;;;;;;13.27;12.17;;;;;;;17.47;100.00;95842.59;5040658;28;20430;-73
2022/06/24 02:46:34;;;;;;;12.40;11.50;;;;;;;17.35;100.00;95842.97;5015264;28;20484;-74
2022/06/24 02:49:01;;;;;;;13.07;12.03;;;;;;;17.06;100.00;95824.25;5028838;28;20449;-74
2022/06/24 02:51:27;;;;;;;15.70;13.73;;;;;;;16.88;100.00;95812.78;5028815;28;20982;-74
2022/06/24 02:53:54;;;;;;;15.33;14.13;;;;;;;16.66;100.00;95825.28;5028786;28;20527;-75
2022/06/24 02:56:21;;;;;;;14.27;12.93;;;;;;;16.69;100.00;95813.88;5028862;28;20438;-75
2022/06/24 02:58:48;;;;;;;13.87;12.77;;;;;;;16.59;100.00;95792.50;5028811;28;20529;-75
2022/06/24 03:01:15;;;;;;;14.10;13.00;;;;;;;16.91;100.00;95827.28;5028892;28;20442;-75
2022/06/24 03:03:42;;;;;;;14.20;13.03;;;;;;;16.72;100.00;95791.78;5028919;28;20435;-75
2022/06/24 03:06:09;;;;;;;15.77;14.40;;;;;;;16.55;100.00;95785.22;5012638;28;20434;-75
2022/06/24 03:08:36;;;;;;;13.70;12.40;;;;;;;16.90;100.00;95813.16;5028813;28;20430;-75
2022/06/24 03:11:12;;;;;;;14.10;12.80;;;;;;;16.83;100.00;95799.81;5045181;28;20981;-75
2022/06/24 03:13:38;;;;;;;13.60;12.53;;;;;;;17.28;100.00;95821.59;5029784;28;20446;-75
2022/06/24 03:16:05;;;;;;;14.00;13.00;;;;;;;17.00;100.00;95817.75;5036916;28;20500;-75
2022/06/24 03:18:32;;;;;;;14.00;12.77;;;;;;;16.98;100.00;95821.97;5030266;28;20438;-75
2022/06/24 03:20:59;;;;;;;14.10;12.90;;;;;;;16.72;100.00;95791.03;5029975;28;20457;-75
2022/06/24 03:23:26;;;;;;;14.00;12.10;;;;;;;17.01;100.00;95807.84;5030928;28;20960;-75
2022/06/24 03:25:53;;;;;;;15.43;14.03;;;;;;;16.86;100.00;95777.69;5032238;28;20450;-75
2022/06/24 03:28:19;;;;;;;13.60;12.33;;;;;;;17.21;100.00;95800.97;5032227;28;20483;-75
2022/06/24 03:30:46;;;;;;;13.57;12.37;;;;;;;17.05;100.00;95788.00;5031993;28;20478;-75
2022/06/24 03:33:15;;;;;;;16.93;15.23;;;;;;;16.90;100.00;95797.16;5048583;28;20450;-75
2022/06/24 03:35:42;;;;;;;13.70;12.63;;;;;;;17.03;100.00;95786.84;5031977;28;20468;-75
2022/06/24 03:38:09;;;;;;;13.73;12.60;;;;;;;17.11;100.00;95810.53;5032068;28;20431;-75
2022/06/24 03:40:36;;;;;;;13.70;12.40;;;;;;;17.33;100.00;95803.25;5031897;28;20455;-75
2022/06/24 03:43:02;;;;;;;13.30;12.30;;;;;;;17.30;100.00;95809.38;5031688;28;20980;-75
2022/06/24 03:45:29;;;;;;;14.30;13.00;;;;;;;17.43;100.00;95821.22;5048505;28;20548;-75
2022/06/24 03:47:56;;;;;;;14.47;13.23;;;;;;;17.59;100.00;95825.41;5031840;28;20438;-75
2022/06/24 03:50:23;;;;;;;13.37;12.17;;;;;;;17.84;100.00;95826.16;5031692;28;21033;-75
2022/06/24 03:52:50;;;;;;;13.77;12.50;;;;;;;17.63;100.00;95800.19;5031695;28;20829;-75
2022/06/24 03:55:16;;;;;;;14.57;13.17;;;;;;;17.88;100.00;95815.44;5031674;28;21034;-75
2022/06/24 03:57:43;;;;;;;17.63;12.50;;;;;;;17.81;100.00;95826.94;5047985;28;20456;-75
2022/06/24 04:00:11;;;;;;;14.33;13.07;;;;;;;17.57;100.00;95807.06;5047948;28;20462;-75
2022/06/24 04:02:38;;;;;;;14.40;13.00;;;;;;;17.55;100.00;95825.41;5032682;28;20427;-75
2022/06/24 04:05:12;;;;;;;13.63;12.40;;;;;;;17.62;100.00;95825.38;5032773;28;20423;-75
2022/06/24 04:07:39;;;;;;;15.27;13.57;;;;;;;17.58;100.00;95813.19;5031292;28;20526;-75
2022/06/24 04:10:06;;;;;;;13.40;12.33;;;;;;;17.50;100.00;95793.72;5032660;28;20442;-75
2022/06/24 04:12:33;;;;;;;14.83;13.60;;;;;;;17.68;100.00;95802.50;5032495;28;20445;-75
2022/06/24 04:15:15;;;;;;;13.33;12.13;;;;;;;17.78;100.00;95798.28;5036078;28;20481;-75
2022/06/24 04:17:45;;;;;;;13.10;12.00;;;;;;;17.85;100.00;95776.09;5014796;28;20493;-75
2022/06/24 04:20:14;;;;;;;13.70;12.50;;;;;;;18.28;100.00;95817.63;5014535;28;20996;-75
2022/06/24 04:22:41;;;;;;;13.47;12.10;;;;;;;18.21;100.00;95812.31;5030905;28;20496;-75
2022/06/24 04:25:09;;;;;;;12.73;11.80;;;;;;;18.46;100.00;95824.81;5030947;28;20469;-75
2022/06/24 04:27:36;;;;;;;15.27;11.47;;;;;;;18.47;100.00;95818.31;5030893;28;20533;-75
2022/06/24 04:30:06;;;;;;;11.40;10.23;;;;;;;18.51;100.00;95808.34;5030856;28;20500;-75
2022/06/24 04:32:33;;;;;;;13.53;11.77;;;;;;;18.90;100.00;95830.34;5030871;28;20530;-75
2022/06/24 04:35:01;;;;;;;11.40;9.87;;;;;;;18.90;100.00;95822.31;5030877;28;20466;-75
2022/06/24 04:37:28;;;;;;;14.50;10.40;;;;;;;18.95;100.00;95831.09;5030762;28;21021;-75
2022/06/24 04:39:58;;;;;;;11.27;10.37;;;;;;;18.95;100.00;95823.81;5030912;28;20466;-75
2022/06/24 04:42:25;;;;;;;10.73;9.93;;;;;;;18.87;100.00;95801.69;5030575;28;20517;-74
2022/06/24 04:44:53;;;;;;;9.97;9.23;;;;;;;19.04;100.00;95818.78;5031837;28;20429;-74
2022/06/24 04:47:20;;;;;;;9.90;9.10;;;;;;;19.18;100.00;95826.72;5010945;28;20443;-74
2022/06/24 04:49:46;;;;;;;9.97;9.00;;;;;;;19.22;100.00;95823.25;5027532;28;20508;-74
2022/06/24 04:52:15;;;;;;;9.37;8.63;;;;;;;19.20;100.00;95796.84;5030470;28;20485;-74
2022/06/24 04:54:43;;;;;;;9.40;8.60;;;;;;;19.48;100.00;95795.84;5031678;28;20464;-75
2022/06/24 04:57:11;;;;;;;8.43;7.83;;;;;;;19.86;100.00;95834.22;5031805;28;20431;-74
2022/06/24 04:59:37;;;;;;;8.30;7.80;;;;;;;19.76;100.00;95816.31;5011116;28;20529;-74
2022/06/24 05:02:04;;;;;;;8.90;8.20;;;;;;;19.75;100.00;95828.94;5010654;28;20521;-74
2022/06/24 05:04:35;;;;;;;8.90;8.30;;;;;;;19.64;100.00;95831.00;5030312;28;20473;-74
2022/06/24 05:07:03;;;;;;;8.77;7.97;;;;;;;19.75;100.00;95833.56;5031876;28;20434;-74
2022/06/24 05:09:30;;;;;;;8.60;8.00;;;;;;;19.81;100.00;95813.22;5031528;28;20454;-74
2022/06/24 05:11:57;;;;;;;9.73;7.77;;;;;;;19.96;100.00;95830.69;5013797;28;20647;-74
2022/06/24 05:14:23;;;;;;;8.33;7.70;;;;;;;19.78;100.00;95830.09;5029989;28;20989;-74
2022/06/24 05:16:50;;;;;;;8.10;7.33;;;;;;;19.86;100.00;95820.81;5018976;28;20442;-74
2022/06/24 05:19:17;;;;;;;8.17;7.47;;;;;;;19.94;100.00;95837.63;5033619;28;20438;-75
2022/06/24 05:21:44;;;;;;;8.10;7.30;;;;;;;19.93;100.00;95826.13;5033808;28;20449;-74
2022/06/24 05:24:10;;;;;;;8.50;7.80;;;;;;;19.93;100.00;95812.69;5049957;28;20991;-74
2022/06/24 05:26:37;;;;;;;8.67;7.90;;;;;;;20.03;100.00;95841.34;5049883;28;20469;-74
2022/06/24 05:29:04;;;;;;;9.07;8.17;;;;;;;19.89;100.00;95844.16;5049613;28;20473;-74
2022/06/24 05:31:30;;;;;;;13.03;9.73;;;;;;;19.68;100.00;95839.75;5049767;28;20465;-74
2022/06/24 05:33:57;;;;;;;10.67;9.73;;;;;;;19.35;100.00;95837.69;5049822;28;20508;-75
2022/06/24 05:36:24;;;;;;;9.83;8.93;;;;;;;19.26;100.00;95803.31;5049949;28;20445;-76
2022/06/24 05:38:51;;;;;;;9.13;8.20;;;;;;;19.61;100.00;95829.09;5049619;28;20466;-76
2022/06/24 05:41:18;;;;;;;9.83;8.70;;;;;;;19.53;100.00;95822.25;5033307;28;20489;-76
2022/06/24 05:43:46;;;;;;;8.80;7.90;;;;;;;19.31;100.00;95796.75;5049602;28;20475;-75
2022/06/24 05:46:13;;;;;;;9.73;9.03;;;;;;;19.48;100.00;95850.22;5049202;28;20495;-76
2022/06/24 05:48:40;;;;;;;10.50;8.70;;;;;;;19.64;100.00;95854.38;5049715;28;20422;-76
2022/06/24 05:51:09;;;;;;;9.97;9.17;;;;;;;19.15;100.00;95850.88;5049643;28;20488;-76
2022/06/24 05:56:22;;;;;;;10.40;9.30;;;;;;;18.40;100.00;95845.88;5049406;28;20516;-76
2022/06/24 05:58:49;;;;;;;10.97;9.97;;;;;;;18.20;100.00;95828.75;5049405;28;20937;-76
2022/06/24 06:01:17;;;;;;;10.83;9.83;;;;;;;18.20;100.00;95847.47;5028434;28;20466;-76
2022/06/24 06:03:44;;;;;;;14.73;11.17;;;;;;;17.82;100.00;95811.66;5016103;28;20490;-75
2022/06/24 06:06:11;;;;;;;13.17;10.53;;;;;;;17.88;100.00;95805.50;5029688;28;21045;-75
2022/06/24 06:08:39;;;;;;;12.80;9.60;;;;;;;18.00;100.00;95833.75;5029675;28;20434;-76
2022/06/24 06:11:12;;;;;;;12.33;9.83;;;;;;;18.12;100.00;95852.06;5043178;28;20469;-76
2022/06/24 06:13:43;;;;;;;12.83;10.93;;;;;;;17.94;100.00;95838.00;5042167;28;20930;-76
2022/06/24 06:16:10;;;;;;;12.47;11.20;;;;;;;17.59;100.00;95858.25;5024933;28;20485;-76
2022/06/24 06:18:38;;;;;;;12.90;11.67;;;;;;;17.48;100.00;95862.81;5032672;28;20488;-76
2022/06/24 06:21:08;;;;;;;13.67;10.50;;;;;;;17.65;100.00;95872.00;5022407;28;20513;-77
2022/06/24 06:23:37;;;;;;;12.07;10.80;;;;;;;17.50;100.00;95823.13;5012279;28;20403;-76
2022/06/24 06:26:05;;;;;;;12.57;11.53;;;;;;;17.25;100.00;95838.41;5040885;28;20834;-76
2022/06/24 06:28:32;;;;;;;16.60;12.40;;;;;;;17.08;100.00;95818.53;5018945;28;20451;-76
2022/06/24 06:31:00;;;;;;;14.60;13.33;;;;;;;17.27;100.00;95847.56;5040163;28;20465;-76
2022/06/24 06:33:27;;;;;;;13.47;12.37;;;;;;;17.34;100.00;95842.19;5031530;28;21321;-76
2022/06/24 06:36:11;;;;;;;12.87;11.70;;;;;;;17.12;100.00;95827.31;5024701;28;20501;-76
2022/06/24 06:38:39;;;;;;;13.13;11.90;;;;;;;17.42;100.00;95834.97;5014319;28;20433;-75
2022/06/24 06:41:17;;;;;;;14.07;11.40;;;;;;;17.37;100.00;95838.03;5030234;28;20451;-75
2022/06/24 06:43:44;;;;;;;14.87;11.83;;;;;;;17.55;100.00;95838.00;5031192;28;20510;-76
2022/06/24 06:46:11;;;;;;;13.17;11.87;;;;;;;17.93;100.00;95850.59;5046279;28;20426;-76
2022/06/24 06:48:41;;;;;;;10.90;9.07;;;;;;;17.53;100.00;95827.72;5049850;28;20429;-76
2022/06/24 06:51:08;;;;;;;12.53;11.63;;;;;;;17.77;100.00;95854.84;5019894;28;20516;-76
2022/06/24 06:53:35;;;;;;;11.83;10.83;;;;;;;17.80;100.00;95825.41;5038351;28;20464;-76
2022/06/24 06:56:03;;;;;;;11.37;10.57;;;;;;;17.79;100.00;95815.88;5022227;28;20565;-76
2022/06/24 06:58:30;;;;;;;12.03;10.93;;;;;;;17.84;100.00;95834.19;5028461;28;20442;-76
2022/06/24 07:00:56;;;;;;;11.90;10.80;;;;;;;17.93;100.00;95821.19;5047790;28;20492;-76
2022/06/24 07:03:23;;;;;;;13.07;11.80;;;;;;;17.54;100.00;95818.53;5033940;28;20525;-75
2022/06/24 07:05:50;;;;;;;13.60;12.20;;;;;;;17.53;100.00;95826.94;5035404;28;20466;-75
2022/06/24 07:08:17;;;;;;;13.30;11.93;;;;;;;17.73;100.00;95801.34;5053637;28;20971;-75
2022/06/24 07:10:45;;;;;;;13.93;12.70;;;;;;;18.24;100.00;95843.63;5040949;28;20568;-76
2022/06/24 07:13:12;;;;;;;12.10;11.07;;;;;;;18.22;100.00;95837.91;5043744;28;20821;-75
2022/06/24 07:15:39;;;;;;;12.97;11.87;;;;;;;18.42;100.00;95837.44;5019682;28;20556;-76
2022/06/24 07:18:06;;;;;;;15.33;13.87;;;;;;;18.40;100.00;95839.75;5017277;28;20434;-76
2022/06/24 07:20:33;;;;;;;13.77;12.37;;;;;;;18.45;100.00;95842.03;5047889;28;20458;-76
2022/06/24 07:23:00;;;;;;;13.17;11.97;;;;;;;18.46;100.00;95822.91;5034678;28;20488;-76
2022/06/24 07:25:27;;;;;;;13.90;12.70;;;;;;;18.72;100.00;95843.09;5037412;28;20475;-76
2022/06/24 07:27:54;;;;;;;13.53;12.10;;;;;;;18.21;100.00;95844.41;5044163;28;20429;-76
2022/06/24 07:30:21;;;;;;;14.00;13.00;;;;;;;17.96;100.00;95811.63;5046136;28;20445;-76
2022/06/24 07:32:47;;;;;;;17.43;15.70;;;;;;;18.45;100.00;95836.69;5022853;28;20493;-76
2022/06/24 07:35:14;;;;;;;14.20;12.90;;;;;;;18.55;100.00;95844.66;5026390;28;20486;-76
2022/06/24 07:38:01;;;;;;;14.53;12.47;;;;;;;18.12;100.00;95806.59;5038672;28;20558;-76
2022/06/24 07:40:28;;;;;;;14.80;13.40;;;;;;;18.13;100.00;95810.03;5022786;28;20599;-76
2022/06/24 07:42:55;;;;;;;16.37;14.20;;;;;;;18.16;100.00;95799.34;5038940;28;20465;-76
2022/06/24 07:45:22;;;;;;;13.27;12.07;;;;;;;18.29;100.00;95813.78;5033803;28;20454;-76
2022/06/24 07:47:48;;;;;;;14.97;13.67;;;;;;;18.15;100.00;95797.78;5032592;28;20476;-76
2022/06/24 07:50:15;;;;;;;15.33;13.97;;;;;;;18.24;100.00;95822.22;5046358;28;20517;-77
2022/06/24 07:52:42;;;;;;;16.03;14.43;;;;;;;18.18;100.00;95812.31;5019606;28;20867;-77
2022/06/24 07:57:54;;;;;;;13.17;12.17;;;;;;;18.70;100.00;95832.00;5031702;28;20958;-76
2022/06/24 08:00:21;;;;;;;14.47;13.33;;;;;;;18.60;100.00;95790.72;5022185;28;20537;-76
2022/06/24 08:02:48;;;;;;;14.87;13.70;;;;;;;18.45;100.00;95797.28;5032548;28;20438;-76
2022/06/24 08:05:17;;;;;;;16.40;14.73;;;;;;;18.47;100.00;95788.88;5032245;28;20453;-76
2022/06/24 08:07:44;;;;;;;14.13;12.93;;;;;;;18.44;100.00;95805.72;5049249;28;20445;-76
2022/06/24 08:10:11;;;;;;;16.03;14.43;;;;;;;18.77;100.00;95805.19;5039814;28;20458;-76
2022/06/24 08:12:38;;;;;;;15.40;14.10;;;;;;;18.78;100.00;95785.28;5031685;28;20450;-76
2022/06/24 08:15:05;;;;;;;16.03;14.73;;;;;;;19.01;100.00;95808.84;5019898;28;20494;-76
2022/06/24 08:17:32;;;;;;;15.40;13.90;;;;;;;18.84;100.00;95791.75;5045005;28;20808;-76
2022/06/24 08:19:59;;;;;;;19.53;14.23;;;;;;;18.79;100.00;95791.38;5032901;28;20992;-76
2022/06/24 08:22:25;;;;;;;14.90;13.60;;;;;;;18.58;100.00;95809.09;5036733;28;20445;-77
2022/06/24 08:24:52;;;;;;;15.37;14.07;;;;;;;18.74;100.00;95807.88;5039012;28;20879;-76
2022/06/24 08:27:39;;;;;;;17.77;14.67;;;;;;;18.57;100.00;95770.06;5029503;28;20430;-76
2022/06/24 08:30:06;;;;;;;17.47;15.90;;;;;;;18.28;100.00;95749.94;5036476;28;21055;-76
2022/06/24 08:32:33;;;;;;;20.43;15.80;;;;;;;18.67;100.00;95797.19;5032413;28;20434;-76
2022/06/24 08:35:00;;;;;;;16.93;14.57;;;;;;;18.59;100.00;95786.50;5032413;28;20423;-76
2022/06/24 08:37:47;;;;;;;17.43;15.93;;;;;;;18.73;100.00;95788.38;5030896;28;20915;-76
2022/06/24 08:40:15;;;;;;;17.00;15.60;;;;;;;18.56;100.00;95787.28;5036346;28;21026;-76
2022/06/24 08:42:44;;;;;;;22.23;16.67;;;;;;;18.34;100.00;95772.47;5038742;28;20446;-76
2022/06/24 08:45:14;;;;;;;16.90;15.50;;;;;;;18.66;100.00;95793.00;5031114;28;20473;-76
2022/06/24 08:47:41;;;;;;;17.33;16.00;;;;;;;18.37;100.00;95790.44;5034484;28;20443;-76
2022/06/24 08:50:09;;;;;;;18.73;17.20;;;;;;;18.79;100.00;95812.81;5019118;28;20481;-76
2022/06/24 08:52:36;;;;;;;19.00;17.40;;;;;;;18.53;100.00;95769.31;5027756;28;20475;-76
2022/06/24 08:55:04;;;;;;;19.63;17.93;;;;;;;18.13;100.00;95724.41;5024191;28;20443;-76
2022/06/24 08:57:31;;;;;;;19.50;17.67;;;;;;;18.27;100.00;95751.84;5026179;28;20422;-76
2022/06/24 08:59:58;;;;;;;19.10;17.37;;;;;;;18.37;100.00;95787.75;5043796;28;20512;-76
2022/06/24 09:02:25;;;;;;;18.50;16.90;;;;;;;18.20;100.00;95772.56;5044088;28;20433;-76
2022/06/24 09:04:52;;;;;;;23.80;21.50;;;;;;;18.39;100.00;95779.34;5031221;28;20442;-76
2022/06/24 09:07:26;;;;;;;19.60;18.00;;;;;;;18.54;100.00;95765.47;5014998;28;20478;-76
2022/06/24 09:10:01;;;;;;;20.53;18.83;;;;;;;18.48;100.00;95780.44;5031981;28;20453;-76
2022/06/24 09:12:30;;;;;;;20.60;18.70;;;;;;;18.16;100.00;95748.50;5017405;28;20872;-76
2022/06/24 09:15:02;;;;;;;19.73;18.03;;;;;;;18.11;100.00;95756.13;5036523;28;20423;-76
2022/06/24 09:17:30;;;;;;;21.50;19.47;;;;;;;18.54;100.00;95780.78;5047226;28;20444;-76
2022/06/24 09:20:06;;;;;;;20.10;18.30;;;;;;;18.93;100.00;95802.00;5050984;28;20510;-76
2022/06/24 09:23:07;;;;;;;21.67;19.80;;;;;;;19.03;100.00;95805.78;5030662;28;20900;-77
2022/06/24 09:26:00;;;;;;;21.77;19.63;;;;;;;18.83;100.00;95784.09;5032364;28;20525;-77
2022/06/24 09:28:32;;;;;;;22.23;20.23;;;;;;;19.03;100.00;95787.78;5029711;28;20604;-76
2022/06/24 09:31:07;;;;;;;21.63;19.83;;;;;;;19.10;100.00;95771.66;5021306;28;20459;-77
2022/06/24 09:33:41;;;;;;;22.30;20.40;;;;;;;19.25;100.00;95785.72;5024018;28;21288;-77
2022/06/24 09:36:10;;;;;;;22.40;20.17;;;;;;;19.18;100.00;95775.78;5022655;28;20850;-77
2022/06/24 09:38:54;;;;;;;23.30;21.20;;;;;;;19.07;100.00;95775.13;5036034;28;20791;-76
2022/06/24 09:41:21;;;;;;;22.23;20.13;;;;;;;19.06;100.00;95772.84;5048799;28;20441;-77
2022/06/24 09:43:49;;;;;;;22.03;20.03;;;;;;;19.29;100.00;95758.88;5022101;28;20993;-76
2022/06/24 09:46:21;;;;;;;20.73;19.07;;;;;;;19.33;100.00;95759.59;5037240;28;20984;-77
2022/06/24 09:48:57;;;;;;;24.20;22.10;;;;;;;19.67;100.00;95778.47;5040935;28;20437;-77
2022/06/24 09:51:24;;;;;;;21.83;19.70;;;;;;;19.63;100.00;95761.63;5010659;28;20512;-76
2022/06/24 09:53:51;;;;;;;20.00;18.30;;;;;;;19.78;100.00;95779.88;5025642;28;20491;-76
2022/06/24 09:56:20;;;;;;;20.57;18.77;;;;;;;20.01;100.00;95814.13;5032816;28;20458;-76
2022/06/24 10:01:40;;;;;;;20.70;18.80;;;;;;;19.98;100.00;95787.34;5044276;28;20503;-76
2022/06/24 10:04:14;;;;;;;23.50;21.30;;;;;;;19.87;100.00;95771.34;5044704;28;20806;-76
2022/06/24 10:06:44;;;;;;;20.87;19.10;;;;;;;20.21;100.00;95782.09;5041573;28;20494;-77
2022/06/24 10:09:12;;;;;;;21.70;20.00;;;;;;;20.13;100.00;95771.81;5020081;28;20490;-77
2022/06/24 10:11:42;;;;;;;23.03;19.50;;;;;;;19.98;100.00;95761.25;5032619;28;20446;-76
2022/06/24 10:14:12;;;;;;;20.33;18.60;;;;;;;19.97;100.00;95762.41;5032287;28;20442;-77
2022/06/24 10:16:41;;;;;;;19.90;18.17;;;;;;;19.99;100.00;95786.94;5043901;28;20461;-76
2022/06/24 10:19:10;;;;;;;19.83;18.10;;;;;;;19.73;100.00;95763.44;5022816;28;20457;-77
2022/06/24 10:21:48;;;;;;;20.50;18.90;;;;;;;19.76;100.00;95759.97;5019693;28;20443;-77
2022/06/24 10:24:16;;;;;;;19.50;17.80;;;;;;;19.74;100.00;95784.50;5032394;28;20449;-77
2022/06/24 10:26:48;;;;;;;20.77;18.87;;;;;;;19.69;100.00;95790.31;5018292;28;20439;-77
2022/06/24 10:29:26;;;;;;;19.63;17.87;;;;;;;19.81;100.00;95786.38;5044639;28;20445;-77
2022/06/24 10:31:57;;;;;;;20.33;18.47;;;;;;;20.07;100.00;95809.88;5031470;28;20468;-76
2022/06/24 10:34:30;;;;;;;19.00;17.13;;;;;;;19.95;100.00;95821.09;5045859;28;20453;-78
2022/06/24 10:36:56;;;;;;;19.70;17.97;;;;;;;20.06;100.00;95821.75;5042202;28;20484;-78
2022/06/24 10:39:25;;;;;;;19.13;17.50;;;;;;;19.94;100.00;95826.88;5044425;28;20789;-78
2022/06/24 10:42:10;;;;;;;17.53;16.13;;;;;;;19.97;100.00;95818.78;5047880;28;20465;-76
2022/06/24 10:44:38;;;;;;;17.90;16.47;;;;;;;19.94;100.00;95816.91;5034050;28;20469;-76
2022/06/24 10:47:04;;;;;;;19.80;18.00;;;;;;;19.84;100.00;95814.31;5041157;28;20440;-76
2022/06/24 10:49:50;;;;;;;20.63;18.63;;;;;;;19.73;100.00;95812.50;5040124;28;21120;-77
2022/06/24 10:52:35;;;;;;;18.90;17.10;;;;;;;19.89;100.00;95817.31;5044010;28;20488;-77
2022/06/24 10:55:15;;;;;;;19.13;17.63;;;;;;;19.96;100.00;95808.44;5040009;28;20431;-77
2022/06/24 10:57:54;;;;;;;19.93;18.20;;;;;;;19.71;100.00;95790.69;5039202;28;20498;-77
2022/06/24 11:00:27;;;;;;;20.13;18.27;;;;;;;19.65;100.00;95794.19;5017311;28;20461;-77
2022/06/24 11:03:02;;;;;;;21.63;19.73;;;;;;;19.68;100.00;95798.78;5048392;28;20426;-77
2022/06/24 11:05:34;;;;;;;22.23;20.23;;;;;;;19.48;100.00;95772.47;5033472;28;20465;-77
2022/06/24 11:08:03;;;;;;;21.47;19.67;;;;;;;19.49;100.00;95775.91;5052750;28;20425;-76
2022/06/24 11:10:31;;;;;;;22.50;20.37;;;;;;;19.75;100.00;95788.72;5018917;28;20455;-76
2022/06/24 11:13:00;;;;;;;19.93;18.33;;;;;;;19.88;100.00;95788.97;5013188;28;20443;-77
2022/06/24 11:15:35;;;;;;;19.03;17.43;;;;;;;20.09;100.00;95796.03;5046001;28;21035;-76
2022/06/24 11:18:20;;;;;;;20.70;18.77;;;;;;;20.22;100.00;95793.59;5032722;28;20414;-76
2022/06/24 11:20:51;;;;;;;21.00;18.90;;;;;;;20.07;100.00;95795.69;5033848;28;21023;-76
2022/06/24 11:23:19;;;;;;;21.67;19.80;;;;;;;20.31;100.00;95791.19;5044747;28;20441;-76
2022/06/24 11:25:56;;;;;;;20.03;18.10;;;;;;;20.42;100.00;95788.38;5022909;28;20940;-77
2022/06/24 11:28:28;;;;;;;20.70;19.10;;;;;;;20.64;100.00;95770.81;5039155;28;20956;-77
2022/06/24 11:30:56;;;;;;;20.13;18.40;;;;;;;20.09;100.00;95747.72;5041033;28;20472;-77
2022/06/24 11:33:23;;;;;;;20.93;18.87;;;;;;;20.19;100.00;95754.13;5022491;28;20946;-76